Time;durP1;ratioP1;P1;durP2;ratioP2;P2;SDS_P1;SDS_P2;PMS_P1;PMS_P2;Temp;Humidity;BMP_temperature;BMP_pressure;BME280_temperature;BME280_humidity;BME280_pressure;Samples;Min_cycle;Max_cycle;Signal;HPM_P1;HPM_P2
2021/10/24 00:00:58;;;;;;;15.07;8.57;;;;;;;;;;5084023;28;20047;-68
2021/10/24 00:03:24;;;;;;;18.00;8.98;;;;;;;;;;5084291;28;20500;-68
2021/10/24 00:05:51;;;;;;;22.42;8.95;;;;;;;;;;5086479;28;20048;-68
2021/10/24 00:08:17;;;;;;;15.20;8.77;;;;;;;;;;5083568;28;20103;-68
2021/10/24 00:10:43;;;;;;;13.90;7.38;;;;;;;;;;5088076;28;20040;-68
2021/10/24 00:13:10;;;;;;;13.30;7.43;;;;;;;;;;5085760;28;20070;-70
2021/10/24 00:15:36;;;;;;;13.93;6.93;;;;;;;;;;5076993;28;20041;-69
2021/10/24 00:18:02;;;;;;;17.40;7.53;;;;;;;;;;5071884;28;20049;-67
2021/10/24 00:20:28;;;;;;;12.82;7.90;;;;;;;;;;5088613;28;20075;-68
2021/10/24 00:22:54;;;;;;;19.13;9.30;;;;;;;;;;5082836;28;20051;-68
2021/10/24 00:25:20;;;;;;;14.77;7.40;;;;;;;;;;5085141;28;20051;-67
2021/10/24 00:27:46;;;;;;;15.38;8.45;;;;;;;;;;5086164;28;20048;-68
2021/10/24 00:30:13;;;;;;;14.77;7.82;;;;;;;;;;5082168;28;20045;-68
2021/10/24 00:32:40;;;;;;;13.90;8.48;;;;;;;;;;5079891;28;20076;-68
2021/10/24 00:35:06;;;;;;;19.20;8.55;;;;;;;;;;5081490;28;20092;-69
2021/10/24 00:37:32;;;;;;;16.17;8.93;;;;;;;;;;5074447;28;20052;-68
2021/10/24 00:39:58;;;;;;;21.20;8.68;;;;;;;;;;5078357;28;20048;-69
2021/10/24 00:42:24;;;;;;;17.85;8.63;;;;;;;;;;5079731;28;20068;-69
2021/10/24 00:44:50;;;;;;;12.95;7.07;;;;;;;;;;5083053;28;20043;-69
2021/10/24 00:47:16;;;;;;;17.48;8.82;;;;;;;;;;5075549;28;20045;-68
2021/10/24 00:49:43;;;;;;;15.80;9.35;;;;;;;;;;5080919;28;20047;-68
2021/10/24 00:52:09;;;;;;;15.15;8.82;;;;;;;;;;5079567;28;20104;-68
2021/10/24 00:54:36;;;;;;;22.77;10.15;;;;;;;;;;5078066;28;20052;-69
2021/10/24 00:57:03;;;;;;;17.85;9.55;;;;;;;;;;5079623;28;20037;-68
2021/10/24 00:59:29;;;;;;;14.57;8.97;;;;;;;;;;5069188;28;20086;-69
2021/10/24 01:01:55;;;;;;;16.10;8.80;;;;;;;;;;5067590;28;20033;-68
2021/10/24 01:04:21;;;;;;;22.42;10.70;;;;;;;;;;5076069;28;20045;-70
2021/10/24 01:06:50;;;;;;;15.07;10.25;;;;;;;;;;5077718;28;20048;-70
2021/10/24 01:09:18;;;;;;;18.00;10.75;;;;;;;;;;5077386;28;20074;-69
2021/10/24 01:11:45;;;;;;;18.88;10.93;;;;;;;;;;5085545;28;20053;-70
2021/10/24 01:14:11;;;;;;;15.18;10.10;;;;;;;;;;5093689;28;20112;-69
2021/10/24 01:16:39;;;;;;;16.55;10.23;;;;;;;;;;5073376;28;20415;-69
2021/10/24 01:19:06;;;;;;;21.55;9.90;;;;;;;;;;5067545;28;20114;-69
2021/10/24 01:21:32;;;;;;;17.55;10.48;;;;;;;;;;5077953;28;20090;-71
2021/10/24 01:23:59;;;;;;;20.45;9.80;;;;;;;;;;5066803;28;20033;-70
2021/10/24 01:26:26;;;;;;;15.93;10.32;;;;;;;;;;5067102;28;20104;-70
2021/10/24 01:28:52;;;;;;;14.43;10.40;;;;;;;;;;5066360;28;20095;-69
2021/10/24 01:31:18;;;;;;;16.38;10.38;;;;;;;;;;5074875;28;20517;-69
2021/10/24 01:33:44;;;;;;;17.35;9.30;;;;;;;;;;5066317;28;20045;-69
2021/10/24 01:36:11;;;;;;;16.98;11.23;;;;;;;;;;5069789;28;20056;-70
2021/10/24 01:38:38;;;;;;;18.67;10.70;;;;;;;;;;5066007;28;20107;-70
2021/10/24 01:41:08;;;;;;;17.73;10.45;;;;;;;;;;5067912;28;20283;-71
2021/10/24 01:43:34;;;;;;;17.13;11.13;;;;;;;;;;5082856;28;20041;-70
2021/10/24 01:46:01;;;;;;;19.35;9.95;;;;;;;;;;5080294;28;20052;-70
2021/10/24 01:48:27;;;;;;;17.23;10.13;;;;;;;;;;5078839;28;20045;-70
2021/10/24 01:50:53;;;;;;;23.23;10.13;;;;;;;;;;5078247;28;20056;-70
2021/10/24 01:53:21;;;;;;;15.50;9.65;;;;;;;;;;5076492;28;20104;-70
2021/10/24 01:55:47;;;;;;;14.73;9.57;;;;;;;;;;5072899;28;20041;-69
2021/10/24 01:58:13;;;;;;;19.77;10.68;;;;;;;;;;5065725;28;20452;-69
2021/10/24 02:00:40;;;;;;;17.40;9.85;;;;;;;;;;5072148;28;20041;-69
2021/10/24 02:03:06;;;;;;;13.30;8.35;;;;;;;;;;5084275;28;20040;-69
2021/10/24 02:05:32;;;;;;;16.08;9.68;;;;;;;;;;5082142;28;20064;-69
2021/10/24 02:07:58;;;;;;;18.45;9.35;;;;;;;;;;5068969;28;20043;-70
2021/10/24 02:10:24;;;;;;;16.08;9.15;;;;;;;;;;5065092;28;20037;-70
2021/10/24 02:12:50;;;;;;;16.65;9.68;;;;;;;;;;5068773;28;21533;-70
2021/10/24 02:15:16;;;;;;;20.35;9.20;;;;;;;;;;5080364;28;20040;-70
2021/10/24 02:17:43;;;;;;;18.10;10.00;;;;;;;;;;5076865;28;20408;-70
2021/10/24 02:20:10;;;;;;;19.88;10.95;;;;;;;;;;5083627;28;20036;-69
2021/10/24 02:22:37;;;;;;;14.75;10.13;;;;;;;;;;5070045;28;20087;-70
2021/10/24 02:25:03;;;;;;;16.00;10.13;;;;;;;;;;5064945;28;20082;-70
2021/10/24 02:27:29;;;;;;;16.73;10.07;;;;;;;;;;5066230;28;20045;-71
2021/10/24 02:29:55;;;;;;;19.08;10.50;;;;;;;;;;5063679;28;20076;-70
2021/10/24 02:32:21;;;;;;;24.60;11.25;;;;;;;;;;5067805;28;20049;-71
2021/10/24 02:34:48;;;;;;;18.67;11.77;;;;;;;;;;5077824;28;20036;-71
2021/10/24 02:37:14;;;;;;;16.30;11.90;;;;;;;;;;5071349;28;20071;-71
2021/10/24 02:39:40;;;;;;;17.27;12.20;;;;;;;;;;5064822;28;20061;-71
2021/10/24 02:42:06;;;;;;;19.80;11.30;;;;;;;;;;5078057;28;20063;-71
2021/10/24 02:44:33;;;;;;;20.35;12.48;;;;;;;;;;5074268;28;20091;-71
2021/10/24 02:47:00;;;;;;;16.55;11.65;;;;;;;;;;5067170;28;20523;-71
2021/10/24 02:49:26;;;;;;;20.20;11.13;;;;;;;;;;5072087;28;20036;-71
2021/10/24 02:51:53;;;;;;;20.65;11.65;;;;;;;;;;5080699;28;20126;-70
2021/10/24 02:54:20;;;;;;;19.98;11.30;;;;;;;;;;5065698;28;20056;-71
2021/10/24 02:56:46;;;;;;;18.15;11.77;;;;;;;;;;5064658;28;20059;-70
2021/10/24 02:59:12;;;;;;;20.30;12.30;;;;;;;;;;5064874;28;20382;-70
2021/10/24 03:01:38;;;;;;;22.48;11.52;;;;;;;;;;5068266;28;20039;-70
2021/10/24 03:04:04;;;;;;;16.75;12.15;;;;;;;;;;5069003;28;20052;-70
2021/10/24 03:06:31;;;;;;;22.58;12.82;;;;;;;;;;5066054;28;20058;-70
2021/10/24 03:08:58;;;;;;;22.77;12.40;;;;;;;;;;5064810;28;20056;-70
2021/10/24 03:11:24;;;;;;;22.02;13.30;;;;;;;;;;5070441;28;20041;-71
2021/10/24 03:13:50;;;;;;;25.13;12.43;;;;;;;;;;5071982;28;20113;-71
2021/10/24 03:16:16;;;;;;;29.42;13.25;;;;;;;;;;5077059;28;20044;-71
2021/10/24 03:18:42;;;;;;;20.75;13.75;;;;;;;;;;5072194;28;20040;-70
2021/10/24 03:21:08;;;;;;;19.45;13.15;;;;;;;;;;5077767;28;20044;-70
2021/10/24 03:23:35;;;;;;;24.85;14.27;;;;;;;;;;5074349;28;20048;-71
2021/10/24 03:26:01;;;;;;;23.08;14.57;;;;;;;;;;5066782;28;20040;-70
2021/10/24 03:28:27;;;;;;;25.00;14.50;;;;;;;;;;5063773;28;20052;-70
2021/10/24 03:30:55;;;;;;;26.58;14.95;;;;;;;;;;5064332;28;20199;-70
2021/10/24 03:33:22;;;;;;;28.80;14.75;;;;;;;;;;5063890;28;20048;-71
2021/10/24 03:35:48;;;;;;;22.42;14.75;;;;;;;;;;5069318;28;20090;-71
2021/10/24 03:38:14;;;;;;;26.35;14.73;;;;;;;;;;5067859;28;20059;-72
2021/10/24 03:40:40;;;;;;;24.13;14.90;;;;;;;;;;5068892;28;20079;-71
2021/10/24 03:43:06;;;;;;;26.85;15.35;;;;;;;;;;5065451;28;20103;-70
2021/10/24 03:45:33;;;;;;;24.63;14.50;;;;;;;;;;5072701;28;20033;-70
2021/10/24 03:47:59;;;;;;;22.98;15.35;;;;;;;;;;5070536;28;20049;-70
2021/10/24 03:50:25;;;;;;;31.58;14.32;;;;;;;;;;5066682;28;20467;-70
2021/10/24 03:52:51;;;;;;;25.60;14.82;;;;;;;;;;5073956;28;20529;-70
2021/10/24 03:55:17;;;;;;;22.55;15.73;;;;;;;;;;5063104;28;20041;-70
2021/10/24 03:57:43;;;;;;;26.92;15.60;;;;;;;;;;5064597;28;20032;-71
2021/10/24 04:00:10;;;;;;;23.20;14.80;;;;;;;;;;5066994;28;20048;-70
2021/10/24 04:02:56;;;;;;;25.47;15.47;;;;;;;;;;5074587;28;20051;-70
2021/10/24 04:05:23;;;;;;;25.67;14.82;;;;;;;;;;5063985;28;20041;-70
2021/10/24 04:07:49;;;;;;;28.13;16.33;;;;;;;;;;5068908;28;20040;-70
2021/10/24 04:10:16;;;;;;;31.52;15.00;;;;;;;;;;5073650;28;20120;-70
2021/10/24 04:12:42;;;;;;;24.60;15.70;;;;;;;;;;5067455;28;20402;-70
2021/10/24 04:15:08;;;;;;;25.52;15.20;;;;;;;;;;5063620;28;20037;-70
2021/10/24 04:17:34;;;;;;;26.25;15.70;;;;;;;;;;5063881;28;20048;-70
2021/10/24 04:20:00;;;;;;;29.85;17.33;;;;;;;;;;5063242;28;20056;-70
2021/10/24 04:22:29;;;;;;;26.65;16.63;;;;;;;;;;5071129;28;20045;-70
2021/10/24 04:24:55;;;;;;;31.75;17.92;;;;;;;;;;5064275;28;20052;-70
2021/10/24 04:27:21;;;;;;;29.35;16.20;;;;;;;;;;5063621;28;20075;-70
2021/10/24 04:29:47;;;;;;;28.13;16.30;;;;;;;;;;5071501;28;20044;-70
2021/10/24 04:32:13;;;;;;;30.75;16.67;;;;;;;;;;5063128;28;20067;-70
2021/10/24 04:34:39;;;;;;;29.27;17.17;;;;;;;;;;5077639;28;20048;-70
2021/10/24 04:37:05;;;;;;;22.20;15.10;;;;;;;;;;5062732;28;20084;-70
2021/10/24 04:39:31;;;;;;;30.48;16.67;;;;;;;;;;5069836;28;20048;-70
2021/10/24 04:41:57;;;;;;;28.45;15.57;;;;;;;;;;5065644;28;20045;-70
2021/10/24 04:44:23;;;;;;;30.13;18.02;;;;;;;;;;5063435;28;20052;-70
2021/10/24 04:46:49;;;;;;;31.02;16.92;;;;;;;;;;5064584;28;20037;-70
2021/10/24 04:49:15;;;;;;;27.27;16.60;;;;;;;;;;5072691;28;20043;-71
2021/10/24 04:51:42;;;;;;;27.60;16.58;;;;;;;;;;5080564;28;20041;-71
2021/10/24 04:54:08;;;;;;;28.98;17.30;;;;;;;;;;5065880;28;20076;-70
2021/10/24 04:56:34;;;;;;;27.48;16.85;;;;;;;;;;5078568;28;20076;-72
2021/10/24 04:59:00;;;;;;;25.13;17.02;;;;;;;;;;5075403;28;20040;-71
2021/10/24 05:01:26;;;;;;;29.30;17.42;;;;;;;;;;5077449;28;20129;-71
2021/10/24 05:03:52;;;;;;;26.80;16.58;;;;;;;;;;5067020;28;20131;-71
2021/10/24 05:06:18;;;;;;;26.20;15.93;;;;;;;;;;5077787;28;20048;-71
2021/10/24 05:08:44;;;;;;;26.23;17.45;;;;;;;;;;5069683;28;20067;-70
2021/10/24 05:11:10;;;;;;;26.85;17.42;;;;;;;;;;5081132;28;20404;-70
2021/10/24 05:13:36;;;;;;;34.25;17.75;;;;;;;;;;5077975;28;20103;-71
2021/10/24 05:16:03;;;;;;;23.30;16.73;;;;;;;;;;5066907;28;20049;-71
2021/10/24 05:18:29;;;;;;;27.33;17.33;;;;;;;;;;5067056;28;20055;-71
2021/10/24 05:20:55;;;;;;;25.15;15.60;;;;;;;;;;5072167;28;20097;-71
2021/10/24 05:23:21;;;;;;;31.00;18.15;;;;;;;;;;5081814;28;20057;-71
2021/10/24 05:25:47;;;;;;;28.67;16.48;;;;;;;;;;5067545;28;20041;-71
2021/10/24 05:28:13;;;;;;;25.10;16.65;;;;;;;;;;5066300;28;20068;-71
2021/10/24 05:30:39;;;;;;;27.60;17.33;;;;;;;;;;5073660;28;20049;-71
2021/10/24 05:33:05;;;;;;;25.83;16.50;;;;;;;;;;5066560;28;20061;-72
2021/10/24 05:35:31;;;;;;;26.90;16.55;;;;;;;;;;5066139;28;20080;-71
2021/10/24 05:37:57;;;;;;;24.98;16.17;;;;;;;;;;5066720;28;20124;-71
2021/10/24 05:40:24;;;;;;;34.78;16.95;;;;;;;;;;5078531;28;20097;-71
2021/10/24 05:42:50;;;;;;;28.40;16.92;;;;;;;;;;5069234;28;20541;-71
2021/10/24 05:45:16;;;;;;;32.05;18.83;;;;;;;;;;5071948;28;20225;-71
2021/10/24 05:47:42;;;;;;;29.77;17.83;;;;;;;;;;5074152;28;20084;-70
2021/10/24 05:50:09;;;;;;;28.33;16.25;;;;;;;;;;5075851;28;20041;-71
2021/10/24 05:52:35;;;;;;;23.05;17.38;;;;;;;;;;5071077;28;20055;-71
2021/10/24 05:55:01;;;;;;;26.85;17.90;;;;;;;;;;5083842;28;20129;-71
2021/10/24 05:57:27;;;;;;;26.02;16.27;;;;;;;;;;5069046;28;20100;-72
2021/10/24 05:59:53;;;;;;;34.50;19.20;;;;;;;;;;5070325;28;20037;-71
2021/10/24 06:02:19;;;;;;;29.52;17.50;;;;;;;;;;5065570;28;20040;-71
2021/10/24 06:04:45;;;;;;;36.20;19.52;;;;;;;;;;5070618;28;20044;-71
2021/10/24 06:07:11;;;;;;;30.30;17.80;;;;;;;;;;5066143;28;20041;-71
2021/10/24 06:09:50;;;;;;;27.77;17.77;;;;;;;;;;5075901;28;20416;-71
2021/10/24 06:12:40;;;;;;;29.42;19.05;;;;;;;;;;5072448;28;20052;-72
2021/10/24 06:15:04;;;;;;;24.27;16.77;;;;;;;;;;5073870;28;20060;-72
2021/10/24 06:17:31;;;;;;;30.77;18.40;;;;;;;;;;5071189;28;20051;-71
2021/10/24 06:19:57;;;;;;;26.40;18.17;;;;;;;;;;5080015;28;20108;-71
2021/10/24 06:22:23;;;;;;;25.88;17.60;;;;;;;;;;5077276;28;20044;-71
2021/10/24 06:24:49;;;;;;;30.35;19.58;;;;;;;;;;5064023;28;20075;-71
2021/10/24 06:27:15;;;;;;;27.75;18.15;;;;;;;;;;5065029;28;20041;-71
2021/10/24 06:29:41;;;;;;;29.58;17.70;;;;;;;;;;5067381;28;20036;-71
2021/10/24 06:32:07;;;;;;;36.65;18.08;;;;;;;;;;5074229;28;20045;-71
2021/10/24 06:34:34;;;;;;;28.98;18.83;;;;;;;;;;5065512;28;20048;-71
2021/10/24 06:37:00;;;;;;;32.28;18.40;;;;;;;;;;5072154;28;20048;-71
2021/10/24 06:39:26;;;;;;;30.80;18.17;;;;;;;;;;5064884;28;20044;-71
2021/10/24 06:41:52;;;;;;;27.92;17.17;;;;;;;;;;5068892;28;20055;-71
2021/10/24 06:44:18;;;;;;;24.80;16.30;;;;;;;;;;5065247;28;20036;-71
2021/10/24 06:46:44;;;;;;;24.08;16.92;;;;;;;;;;5080336;28;20053;-71
2021/10/24 06:49:10;;;;;;;28.05;17.33;;;;;;;;;;5070529;28;20048;-71
2021/10/24 06:51:36;;;;;;;26.25;17.83;;;;;;;;;;5066941;28;20045;-72
2021/10/24 06:54:02;;;;;;;28.90;17.88;;;;;;;;;;5067745;28;20044;-71
2021/10/24 06:56:28;;;;;;;26.48;16.42;;;;;;;;;;5076573;28;20105;-71
2021/10/24 06:58:54;;;;;;;30.42;17.25;;;;;;;;;;5067098;28;20083;-72
2021/10/24 07:01:21;;;;;;;27.17;15.93;;;;;;;;;;5076943;28;20048;-72
2021/10/24 07:03:47;;;;;;;27.08;16.08;;;;;;;;;;5075842;28;20090;-72
2021/10/24 07:06:13;;;;;;;27.67;16.20;;;;;;;;;;5078762;28;20036;-72
2021/10/24 07:08:39;;;;;;;22.75;16.52;;;;;;;;;;5075832;28;20045;-71
2021/10/24 07:11:05;;;;;;;24.90;15.43;;;;;;;;;;5078324;28;20082;-71
2021/10/24 07:13:31;;;;;;;34.40;16.27;;;;;;;;;;5071190;28;20053;-72
2021/10/24 07:15:57;;;;;;;23.15;15.88;;;;;;;;;;5077442;28;20053;-72
2021/10/24 07:18:23;;;;;;;24.15;15.10;;;;;;;;;;5080566;28;20135;-71
2021/10/24 07:20:49;;;;;;;21.58;13.52;;;;;;;;;;5079393;28;20038;-71
2021/10/24 07:23:15;;;;;;;23.05;13.82;;;;;;;;;;5083508;28;20047;-71
2021/10/24 07:25:41;;;;;;;23.20;14.25;;;;;;;;;;5086534;28;20045;-71
2021/10/24 07:28:07;;;;;;;21.63;12.60;;;;;;;;;;5083312;28;20050;-72
2021/10/24 07:30:33;;;;;;;20.63;13.10;;;;;;;;;;5078317;28;20052;-71
2021/10/24 07:32:59;;;;;;;23.85;14.85;;;;;;;;;;5077662;28;20085;-72
2021/10/24 07:35:25;;;;;;;22.27;14.13;;;;;;;;;;5083240;28;20036;-71
2021/10/24 07:37:52;;;;;;;20.50;11.88;;;;;;;;;;5078868;28;20068;-71
2021/10/24 07:40:18;;;;;;;21.42;12.25;;;;;;;;;;5079504;28;20044;-71
2021/10/24 07:42:44;;;;;;;20.05;12.35;;;;;;;;;;5081326;28;20059;-71
2021/10/24 07:45:11;;;;;;;21.45;12.27;;;;;;;;;;5085962;28;20123;-72
2021/10/24 07:47:38;;;;;;;27.35;11.93;;;;;;;;;;5083629;28;20044;-73
2021/10/24 07:50:06;;;;;;;18.00;11.23;;;;;;;;;;5080257;28;20722;-71
2021/10/24 07:52:33;;;;;;;17.70;11.68;;;;;;;;;;5079684;28;20049;-71
2021/10/24 07:54:59;;;;;;;23.95;12.98;;;;;;;;;;5074997;28;20037;-72
2021/10/24 07:57:25;;;;;;;19.45;13.43;;;;;;;;;;5084211;28;20702;-71
2021/10/24 07:59:51;;;;;;;21.55;11.43;;;;;;;;;;5082953;28;20036;-71
2021/10/24 08:02:21;;;;;;;17.33;10.57;;;;;;;;;;5083608;28;20036;-74
2021/10/24 08:04:50;;;;;;;21.63;11.43;;;;;;;;;;5085318;28;20091;-71
2021/10/24 08:07:16;;;;;;;19.45;11.35;;;;;;;;;;5083765;28;20039;-72
2021/10/24 08:09:43;;;;;;;15.55;11.60;;;;;;;;;;5083731;28;20052;-73
2021/10/24 08:12:09;;;;;;;17.08;11.43;;;;;;;;;;5079475;28;20051;-72
2021/10/24 08:14:36;;;;;;;15.85;10.98;;;;;;;;;;5082603;28;20396;-72
2021/10/24 08:17:04;;;;;;;18.90;11.45;;;;;;;;;;5084720;28;20095;-71
2021/10/24 08:19:30;;;;;;;16.67;9.93;;;;;;;;;;5076486;28;20094;-71
2021/10/24 08:21:57;;;;;;;16.83;9.95;;;;;;;;;;5076565;28;20418;-72
2021/10/24 08:24:23;;;;;;;18.10;9.98;;;;;;;;;;5079528;28;20043;-72
2021/10/24 08:26:50;;;;;;;14.68;9.95;;;;;;;;;;5086032;28;20051;-72
2021/10/24 08:29:16;;;;;;;13.20;8.75;;;;;;;;;;5082515;28;20045;-72
2021/10/24 08:31:48;;;;;;;17.30;9.57;;;;;;;;;;5082409;28;20052;-72
2021/10/24 08:34:18;;;;;;;14.00;8.68;;;;;;;;;;5092558;28;20126;-74
2021/10/24 08:36:44;;;;;;;17.70;9.15;;;;;;;;;;5084426;28;20037;-71
2021/10/24 08:39:11;;;;;;;11.77;9.07;;;;;;;;;;5081257;28;20045;-67
2021/10/24 08:41:39;;;;;;;14.70;9.45;;;;;;;;;;5081478;28;20040;-66
2021/10/24 08:44:05;;;;;;;12.95;8.95;;;;;;;;;;5075891;28;20068;-65
2021/10/24 08:46:31;;;;;;;21.17;10.13;;;;;;;;;;5077060;28;20040;-65
2021/10/24 08:48:57;;;;;;;14.85;8.93;;;;;;;;;;5081705;28;20033;-73
2021/10/24 08:51:26;;;;;;;14.48;9.20;;;;;;;;;;5079057;28;20204;-73
2021/10/24 08:53:52;;;;;;;14.02;8.20;;;;;;;;;;5086302;28;20048;-72
2021/10/24 08:56:20;;;;;;;13.45;8.18;;;;;;;;;;5082266;28;20032;-73
2021/10/24 08:58:47;;;;;;;18.30;8.88;;;;;;;;;;5081252;28;20068;-72
2021/10/24 09:01:16;;;;;;;13.95;8.25;;;;;;;;;;5088379;28;20044;-73
2021/10/24 09:04:03;;;;;;;14.70;8.43;;;;;;;;;;5085602;28;20056;-73
2021/10/24 09:06:48;;;;;;;15.48;9.45;;;;;;;;;;5087263;28;20510;-73
2021/10/24 09:09:19;;;;;;;14.48;8.13;;;;;;;;;;5081863;28;20569;-72
2021/10/24 09:11:57;;;;;;;13.80;7.75;;;;;;;;;;5087487;28;20040;-72
2021/10/24 09:14:42;;;;;;;14.48;8.63;;;;;;;;;;5087728;28;20116;-72
2021/10/24 09:17:27;;;;;;;17.45;8.48;;;;;;;;;;5081051;28;20059;-71
2021/10/24 09:19:54;;;;;;;10.30;7.25;;;;;;;;;;5084041;28;20045;-71
2021/10/24 09:22:23;;;;;;;13.52;7.78;;;;;;;;;;5083907;28;20044;-71
2021/10/24 09:25:07;;;;;;;15.00;7.78;;;;;;;;;;5081679;28;20100;-71
2021/10/24 09:27:52;;;;;;;12.48;6.82;;;;;;;;;;5082832;28;20055;-69
2021/10/24 09:30:21;;;;;;;11.25;7.15;;;;;;;;;;5078421;28;20045;-70
2021/10/24 09:32:58;;;;;;;12.27;7.28;;;;;;;;;;5077220;28;20442;-69
2021/10/24 09:35:26;;;;;;;12.90;6.85;;;;;;;;;;5076806;28;20049;-69
2021/10/24 09:37:53;;;;;;;9.73;6.72;;;;;;;;;;5079959;28;20587;-70
2021/10/24 09:40:27;;;;;;;12.73;6.80;;;;;;;;;;5082385;28;20056;-66
2021/10/24 09:43:09;;;;;;;14.63;6.65;;;;;;;;;;5081561;28;20051;-65
2021/10/24 09:45:35;;;;;;;10.73;5.82;;;;;;;;;;5070163;28;20049;-65
2021/10/24 09:48:12;;;;;;;10.10;6.15;;;;;;;;;;5073753;28;20044;-67
2021/10/24 09:50:39;;;;;;;11.85;6.15;;;;;;;;;;5081761;28;20052;-67
2021/10/24 09:53:12;;;;;;;10.68;6.18;;;;;;;;;;5074655;28;20040;-76
2021/10/24 09:55:39;;;;;;;9.98;6.45;;;;;;;;;;5079683;28;20048;-77
2021/10/24 09:58:05;;;;;;;12.82;6.60;;;;;;;;;;5077227;28;20044;-77
2021/10/24 10:00:31;;;;;;;9.98;5.68;;;;;;;;;;5070395;28;20619;-76
2021/10/24 10:02:59;;;;;;;12.73;6.70;;;;;;;;;;5074212;28;20108;-77
2021/10/24 10:05:25;;;;;;;14.30;6.20;;;;;;;;;;5070340;28;20067;-78
2021/10/24 10:07:52;;;;;;;10.88;6.20;;;;;;;;;;5077049;28;20048;-78
2021/10/24 10:10:18;;;;;;;16.60;5.50;;;;;;;;;;5074840;28;20044;-66
2021/10/24 10:12:48;;;;;;;12.82;5.57;;;;;;;;;;5074091;28;20048;-67
2021/10/24 10:15:15;;;;;;;12.25;6.55;;;;;;;;;;5073396;28;20052;-72
2021/10/24 10:17:41;;;;;;;11.88;5.43;;;;;;;;;;5074260;28;20037;-70
2021/10/24 10:20:20;;;;;;;9.32;5.80;;;;;;;;;;5073803;28;20055;-69
2021/10/24 10:22:59;;;;;;;10.02;4.97;;;;;;;;;;5071733;28;20037;-67
2021/10/24 10:25:29;;;;;;;13.02;5.20;;;;;;;;;;5073894;28;20043;-66
2021/10/24 10:27:55;;;;;;;9.77;5.90;;;;;;;;;;5072721;28;20083;-67
2021/10/24 10:30:32;;;;;;;15.00;6.18;;;;;;;;;;5096266;28;20045;-66
2021/10/24 10:33:00;;;;;;;9.73;5.90;;;;;;;;;;5085604;28;20116;-67
2021/10/24 10:35:27;;;;;;;11.20;5.93;;;;;;;;;;5077372;28;20044;-66
2021/10/24 10:38:03;;;;;;;9.70;5.95;;;;;;;;;;5082591;28;20044;-67
2021/10/24 10:40:38;;;;;;;12.90;6.15;;;;;;;;;;5087151;28;20051;-66
2021/10/24 10:43:11;;;;;;;14.48;6.55;;;;;;;;;;5078082;28;20056;-75
2021/10/24 10:45:39;;;;;;;8.65;5.60;;;;;;;;;;5082788;28;20100;-74
2021/10/24 10:48:24;;;;;;;10.00;5.15;;;;;;;;;;5080834;28;20480;-81
2021/10/24 10:50:57;;;;;;;12.35;5.82;;;;;;;;;;5075597;28;20056;-79
2021/10/24 10:53:32;;;;;;;11.43;5.75;;;;;;;;;;5073227;28;20068;-80
2021/10/24 10:56:02;;;;;;;12.52;5.82;;;;;;;;;;5072499;28;20079;-73
2021/10/24 10:58:36;;;;;;;9.95;5.57;;;;;;;;;;5079898;28;20041;-80
2021/10/24 11:01:03;;;;;;;12.35;5.68;;;;;;;;;;5076892;28;20059;-79
2021/10/24 11:03:48;;;;;;;11.52;5.80;;;;;;;;;;5074628;28;20091;-78
2021/10/24 11:06:23;;;;;;;14.18;6.35;;;;;;;;;;5074124;28;20056;-72
2021/10/24 11:08:53;;;;;;;8.52;5.95;;;;;;;;;;5077966;28;20128;-71
2021/10/24 11:11:47;;;;;;;12.05;5.63;;;;;;;;;;5075440;28;20037;-70
2021/10/24 11:14:17;;;;;;;10.10;5.05;;;;;;;;;;5074491;28;20056;-70
2021/10/24 11:16:44;;;;;;;7.03;5.03;;;;;;;;;;5078253;28;20080;-70
2021/10/24 11:19:28;;;;;;;8.75;5.25;;;;;;;;;;5068308;28;20059;-71
2021/10/24 11:22:13;;;;;;;7.47;4.38;;;;;;;;;;5082793;28;20044;-71
2021/10/24 11:24:41;;;;;;;6.50;3.72;;;;;;;;;;5078887;28;20121;-71
2021/10/24 11:27:12;;;;;;;7.22;4.13;;;;;;;;;;5076832;28;20063;-71
2021/10/24 11:29:48;;;;;;;6.40;3.72;;;;;;;;;;5076228;28;20139;-71
2021/10/24 11:32:15;;;;;;;6.13;3.78;;;;;;;;;;5077650;28;20068;-70
2021/10/24 11:34:42;;;;;;;7.97;3.53;;;;;;;;;;5073969;28;20059;-71
2021/10/24 11:37:09;;;;;;;;;;;;;;;;;;5079784;28;20037;-65
2021/10/24 11:39:36;;;;;;;6.40;3.60;;;;;;;;;;5077914;28;20384;-65
2021/10/24 11:42:09;;;;;;;6.20;3.17;;;;;;;;;;5073956;28;20045;-65
2021/10/24 11:44:36;;;;;;;6.18;3.17;;;;;;;;;;5080215;28;20050;-66
2021/10/24 11:47:07;;;;;;;8.70;3.00;;;;;;;;;;5083095;28;20044;-66
2021/10/24 11:49:53;;;;;;;7.65;3.30;;;;;;;;;;5075758;28;20141;-67
2021/10/24 11:52:32;;;;;;;6.18;3.13;;;;;;;;;;5073509;28;20041;-68
2021/10/24 11:55:03;;;;;;;6.72;3.35;;;;;;;;;;5074851;28;20108;-66
2021/10/24 11:57:46;;;;;;;5.72;3.42;;;;;;;;;;5076043;28;20040;-67
2021/10/24 12:00:38;;;;;;;4.55;3.03;;;;;;;;;;5077638;28;20052;-66
2021/10/24 12:03:04;;;;;;;4.40;2.97;;;;;;;;;;5072908;28;20045;-78
2021/10/24 12:05:31;;;;;;;5.22;2.90;;;;;;;;;;5078563;28;20053;-72
2021/10/24 12:07:57;;;;;;;;;;;;;;;;;;5081372;28;20090;-72
2021/10/24 12:10:37;;;;;;;5.68;2.80;;;;;;;;;;5076721;28;19966;-72
2021/10/24 12:13:03;;;;;;;6.00;3.53;;;;;;;;;;5071993;28;20037;-72
2021/10/24 12:15:36;;;;;;;5.22;2.88;;;;;;;;;;5074066;28;20055;-72
2021/10/24 12:18:11;;;;;;;5.55;2.80;;;;;;;;;;5075167;28;20037;-74
2021/10/24 12:20:38;;;;;;;7.35;4.00;;;;;;;;;;5066031;28;20045;-63
2021/10/24 12:23:05;;;;;;;4.70;3.10;;;;;;;;;;5068279;28;20048;-67
2021/10/24 12:25:42;;;;;;;4.75;2.60;;;;;;;;;;5071131;28;20072;-68
2021/10/24 12:28:13;;;;;;;6.40;2.73;;;;;;;;;;5076919;28;20053;-68
2021/10/24 12:30:39;;;;;;;7.03;2.70;;;;;;;;;;5072937;28;20057;-67
2021/10/24 12:33:12;;;;;;;5.47;3.22;;;;;;;;;;5088366;28;20454;-67
2021/10/24 12:35:42;;;;;;;9.23;2.67;;;;;;;;;;5078329;28;20060;-64
2021/10/24 12:38:08;;;;;;;5.60;2.58;;;;;;;;;;5075879;28;20044;-72
2021/10/24 12:40:35;;;;;;;9.02;3.70;;;;;;;;;;5074126;28;20602;-72
2021/10/24 12:43:02;;;;;;;8.17;2.93;;;;;;;;;;5067713;28;20113;-72
2021/10/24 12:45:28;;;;;;;6.65;3.42;;;;;;;;;;5072158;28;20052;-72
2021/10/24 12:47:55;;;;;;;5.18;3.17;;;;;;;;;;5072481;28;20120;-72
2021/10/24 12:50:31;;;;;;;7.85;3.53;;;;;;;;;;5073339;28;20169;-71
2021/10/24 12:53:06;;;;;;;7.70;3.03;;;;;;;;;;5080799;28;20052;-72
2021/10/24 12:55:32;;;;;;;5.60;3.20;;;;;;;;;;5081477;28;20054;-72
2021/10/24 12:58:00;;;;;;;5.20;3.15;;;;;;;;;;5080240;28;20039;-73
2021/10/24 13:00:27;;;;;;;5.15;3.00;;;;;;;;;;5070762;28;20299;-72
2021/10/24 13:02:53;;;;;;;4.93;3.30;;;;;;;;;;5074841;28;20408;-72
2021/10/24 13:05:19;;;;;;;5.53;3.03;;;;;;;;;;5074009;28;20041;-73
2021/10/24 13:07:45;;;;;;;4.97;3.08;;;;;;;;;;5080646;28;20514;-72
2021/10/24 13:10:11;;;;;;;5.75;3.20;;;;;;;;;;5076466;28;20493;-73
2021/10/24 13:12:38;;;;;;;5.40;3.70;;;;;;;;;;5064744;28;20121;-72
2021/10/24 13:15:04;;;;;;;6.57;3.33;;;;;;;;;;5068927;28;20410;-72
2021/10/24 13:17:30;;;;;;;7.13;3.63;;;;;;;;;;5085582;28;20360;-72
2021/10/24 13:19:57;;;;;;;8.35;3.50;;;;;;;;;;5075221;28;20098;-72
2021/10/24 13:25:08;;;;;;;8.70;3.22;;;;;;;;;;5073121;28;20075;-72
2021/10/24 13:27:35;;;;;;;4.97;3.45;;;;;;;;;;5088788;28;20052;-72
2021/10/24 13:30:01;;;;;;;3.70;2.85;;;;;;;;;;5081072;28;20076;-72
2021/10/24 13:32:27;;;;;;;5.35;3.13;;;;;;;;;;5084433;28;20052;-71
2021/10/24 13:34:53;;;;;;;7.70;3.38;;;;;;;;;;5080210;28;20045;-73
2021/10/24 13:37:19;;;;;;;6.03;3.40;;;;;;;;;;5075068;28;20056;-72
2021/10/24 13:39:46;;;;;;;7.68;4.07;;;;;;;;;;5091809;28;20051;-72
2021/10/24 13:42:13;;;;;;;6.60;3.63;;;;;;;;;;5075626;28;20045;-72
2021/10/24 13:44:39;;;;;;;9.20;3.97;;;;;;;;;;5081966;28;20066;-72
2021/10/24 13:47:05;;;;;;;10.23;4.17;;;;;;;;;;5083550;28;20056;-72
2021/10/24 13:49:31;;;;;;;5.53;3.20;;;;;;;;;;5078109;28;20075;-72
2021/10/24 13:51:57;;;;;;;6.65;3.70;;;;;;;;;;5078270;28;20451;-72
2021/10/24 13:54:23;;;;;;;9.73;3.92;;;;;;;;;;5075570;28;20064;-73
2021/10/24 13:56:49;;;;;;;8.48;3.97;;;;;;;;;;5077965;28;20057;-73
2021/10/24 13:59:16;;;;;;;4.82;3.42;;;;;;;;;;5078739;28;20075;-73
2021/10/24 14:01:42;;;;;;;5.18;3.03;;;;;;;;;;5080494;28;20047;-73
2021/10/24 14:04:09;;;;;;;7.90;4.18;;;;;;;;;;5079355;28;20041;-69
2021/10/24 14:06:35;;;;;;;7.97;3.67;;;;;;;;;;5071107;28;20341;-66
2021/10/24 14:09:03;;;;;;;7.80;3.73;;;;;;;;;;5076837;28;20060;-76
2021/10/24 14:11:29;;;;;;;6.47;3.65;;;;;;;;;;5077813;28;20114;-77
2021/10/24 14:13:56;;;;;;;7.83;3.77;;;;;;;;;;5075591;28;20168;-77
2021/10/24 14:16:23;;;;;;;8.43;4.07;;;;;;;;;;5077111;28;20052;-70
2021/10/24 14:18:49;;;;;;;4.85;3.50;;;;;;;;;;5069240;28;20044;-65
2021/10/24 14:21:16;;;;;;;8.30;3.65;;;;;;;;;;5079842;28;20040;-63
2021/10/24 14:23:43;;;;;;;6.55;4.30;;;;;;;;;;5079375;28;20064;-65
2021/10/24 14:26:09;;;;;;;5.82;3.92;;;;;;;;;;5082233;28;20066;-65
2021/10/24 14:28:36;;;;;;;7.53;3.78;;;;;;;;;;5083012;28;20044;-65
2021/10/24 14:31:02;;;;;;;7.43;3.42;;;;;;;;;;5070593;28;20048;-64
2021/10/24 14:33:28;;;;;;;5.27;3.00;;;;;;;;;;5081850;28;20044;-63
2021/10/24 14:35:54;;;;;;;6.57;3.60;;;;;;;;;;5076971;28;20297;-64